Time;durP1;ratioP1;P1;durP2;ratioP2;P2;SDS_P1;SDS_P2;PMS_P1;PMS_P2;Temp;Humidity;BMP_temperature;BMP_pressure;BME280_temperature;BME280_humidity;BME280_pressure;Samples;Min_cycle;Max_cycle;Signal;HPM_P1;HPM_P2
2022/05/07 00:01:19;;;;;;;10.90;4.80;;;13.10;99.90;;;;;;5055807;28;20049;-88
2022/05/07 00:03:46;;;;;;;9.40;4.65;;;13.10;99.90;;;;;;5057260;28;20049;-87
2022/05/07 00:06:11;;;;;;;9.40;4.78;;;13.10;99.90;;;;;;5057636;28;20053;-87
2022/05/07 00:08:37;;;;;;;11.05;4.60;;;13.10;99.90;;;;;;5060660;28;20047;-88
2022/05/07 00:11:03;;;;;;;8.77;4.95;;;14.90;99.90;;;;;;5055642;28;20079;-88
2022/05/07 00:13:29;;;;;;;9.82;4.90;;;13.10;99.90;;;;;;5038651;28;20052;-88
2022/05/07 00:18:39;;;;;;;15.00;5.93;;;13.10;99.90;;;;;;5069762;28;20051;-87
2022/05/07 00:21:04;;;;;;;7.90;4.28;;;13.00;99.90;;;;;;5055547;28;20048;-88
2022/05/07 00:23:30;;;;;;;13.35;5.90;;;13.10;99.90;;;;;;5038902;28;20056;-87
2022/05/07 00:25:56;;;;;;;12.27;5.25;;;13.10;99.90;;;;;;5041429;28;20055;-87
2022/05/07 00:28:22;;;;;;;12.95;6.50;;;13.10;99.90;;;;;;5040496;28;20057;-87
2022/05/07 00:30:48;;;;;;;10.40;5.97;;;13.30;99.90;;;;;;5058203;28;20160;-88
2022/05/07 00:33:14;;;;;;;14.70;5.95;;;13.10;99.90;;;;;;5057647;28;20084;-88
2022/05/07 00:35:39;;;;;;;12.52;6.60;;;13.90;99.90;;;;;;5040787;28;20136;-87
2022/05/07 00:38:05;;;;;;;14.38;5.75;;;13.40;99.90;;;;;;5041589;28;20114;-87
2022/05/07 00:40:31;;;;;;;9.82;5.03;;;13.10;99.90;;;;;;5041804;28;20041;-87
2022/05/07 00:42:56;;;;;;;11.75;6.30;;;13.00;99.90;;;;;;5042092;28;20053;-87
2022/05/07 00:45:22;;;;;;;16.95;6.05;;;13.20;99.90;;;;;;5057547;28;20111;-87
2022/05/07 00:47:49;;;;;;;10.90;4.60;;;14.10;99.90;;;;;;5057397;28;20147;-88
2022/05/07 00:53:00;;;;;;;12.70;5.00;;;13.10;99.90;;;;;;5057040;28;20053;-87
2022/05/07 00:55:28;;;;;;;10.77;5.43;;;13.10;99.90;;;;;;5057332;28;20049;-88
2022/05/07 00:57:55;;;;;;;13.70;6.30;;;13.10;99.90;;;;;;5039917;28;20041;-89
2022/05/07 01:00:21;;;;;;;10.13;5.10;;;13.10;99.90;;;;;;5039936;28;20052;-87
2022/05/07 01:02:47;;;;;;;9.75;4.75;;;13.10;99.90;;;;;;5039832;28;20037;-88
2022/05/07 01:05:13;;;;;;;11.05;5.35;;;13.00;99.90;;;;;;5057274;28;20052;-87
2022/05/07 01:07:39;;;;;;;13.35;6.10;;;13.00;99.90;;;;;;5038680;28;20041;-87
2022/05/07 01:10:06;;;;;;;10.55;5.43;;;15.00;99.90;;;;;;5054372;28;20476;-88
2022/05/07 01:15:57;;;;;;;14.20;5.88;;;13.00;99.90;;;;;;5351283;22;20052;-78
2022/05/07 01:18:23;;;;;;;9.30;5.28;;;13.00;99.90;;;;;;5091644;28;20048;-78
2022/05/07 01:20:49;;;;;;;11.13;6.15;;;13.00;99.90;;;;;;5092663;28;20048;-78
2022/05/07 01:23:15;;;;;;;9.70;5.22;;;13.00;99.90;;;;;;5074791;28;20070;-78
2022/05/07 01:25:41;;;;;;;13.38;5.95;;;13.30;99.90;;;;;;5074811;28;20043;-78
2022/05/07 01:28:07;;;;;;;12.68;5.93;;;13.00;99.90;;;;;;5074673;28;20039;-78
2022/05/07 01:30:36;;;;;;;11.73;6.40;;;12.90;99.90;;;;;;5074723;28;20032;-78
2022/05/07 01:33:02;;;;;;;10.30;6.03;;;12.90;99.90;;;;;;5058186;28;20545;-78
2022/05/07 01:35:28;;;;;;;12.75;6.13;;;12.90;99.90;;;;;;5058115;28;20115;-78
2022/05/07 01:37:53;;;;;;;10.73;5.80;;;12.90;99.90;;;;;;5041820;28;20036;-78
2022/05/07 01:40:19;;;;;;;13.30;5.72;;;12.90;99.90;;;;;;5041281;28;20032;-78
2022/05/07 01:42:45;;;;;;;9.98;5.20;;;12.90;99.90;;;;;;5058141;28;20509;-78
2022/05/07 01:45:11;;;;;;;10.57;5.70;;;12.90;99.90;;;;;;5057987;28;20398;-78
2022/05/07 01:50:22;;;;;;;12.48;6.82;;;12.90;99.90;;;;;;5074432;28;20044;-78
2022/05/07 01:52:48;;;;;;;12.70;5.57;;;12.90;99.90;;;;;;5041549;28;20070;-78
2022/05/07 01:55:14;;;;;;;10.48;6.00;;;12.90;99.90;;;;;;5057904;28;20044;-78
2022/05/07 01:57:40;;;;;;;12.70;6.15;;;12.90;99.90;;;;;;5058008;28;20040;-78
2022/05/07 02:00:06;;;;;;;8.88;5.45;;;12.90;99.90;;;;;;5074330;28;20044;-78
2022/05/07 02:02:33;;;;;;;9.40;6.13;;;12.80;99.90;;;;;;5058478;28;20052;-78
2022/05/07 02:04:59;;;;;;;12.10;5.88;;;12.90;99.90;;;;;;5058000;28;20051;-78
2022/05/07 02:07:24;;;;;;;11.88;5.78;;;12.90;99.90;;;;;;5057821;28;20123;-78
2022/05/07 02:09:50;;;;;;;9.23;5.38;;;12.90;99.90;;;;;;5041385;28;20032;-78
2022/05/07 02:12:16;;;;;;;15.35;6.90;;;12.90;99.90;;;;;;5057773;28;20047;-78
2022/05/07 02:14:42;;;;;;;9.57;5.00;;;12.80;99.90;;;;;;5040946;28;20043;-78
2022/05/07 02:17:08;;;;;;;8.63;4.78;;;12.80;99.90;;;;;;5057407;28;20160;-78
2022/05/07 02:19:33;;;;;;;10.90;5.13;;;13.50;99.90;;;;;;5043646;28;20479;-78
2022/05/07 02:21:59;;;;;;;11.43;5.78;;;12.80;99.90;;;;;;5077726;28;20040;-79
2022/05/07 02:24:25;;;;;;;15.75;6.80;;;12.80;99.90;;;;;;5094727;28;20036;-79
2022/05/07 02:26:50;;;;;;;11.10;5.80;;;12.80;99.90;;;;;;5061300;28;20047;-79
2022/05/07 02:29:16;;;;;;;10.20;4.80;;;12.70;99.90;;;;;;5061204;28;20068;-79
2022/05/07 02:32:03;;;;;;;11.93;6.05;;;13.20;99.90;;;;;;5060942;28;20452;-79
2022/05/07 02:34:29;;;;;;;12.52;5.35;;;12.70;99.90;;;;;;5063595;28;20048;-78
2022/05/07 02:36:56;;;;;;;11.77;5.70;;;12.70;99.90;;;;;;5044584;28;20044;-78
2022/05/07 02:39:21;;;;;;;8.63;5.53;;;12.80;99.90;;;;;;5060913;28;20096;-79
2022/05/07 02:44:31;;;;;;;10.95;6.00;;;12.70;99.90;;;;;;5063425;28;20048;-78
2022/05/07 02:46:57;;;;;;;11.45;6.07;;;12.70;99.90;;;;;;5044518;28;20398;-78
2022/05/07 02:49:23;;;;;;;10.13;5.63;;;12.70;99.90;;;;;;5060970;28;20050;-79
2022/05/07 02:51:49;;;;;;;9.75;5.63;;;12.70;99.90;;;;;;5060516;28;20040;-78
2022/05/07 02:54:15;;;;;;;10.48;5.95;;;12.70;99.90;;;;;;5077496;28;20040;-79
2022/05/07 02:56:40;;;;;;;12.18;5.93;;;12.70;99.90;;;;;;5043861;28;20036;-78
2022/05/07 02:59:06;;;;;;;10.48;5.75;;;12.70;99.90;;;;;;5077262;28;20150;-79
2022/05/07 03:01:32;;;;;;;10.23;6.03;;;12.80;99.90;;;;;;5060760;28;20044;-79
2022/05/07 03:03:58;;;;;;;10.40;6.38;;;12.70;99.90;;;;;;5060496;28;20101;-79
2022/05/07 03:06:23;;;;;;;12.82;5.97;;;12.80;99.90;;;;;;5043996;28;20032;-79
2022/05/07 03:08:49;;;;;;;10.85;6.15;;;12.70;99.90;;;;;;5060670;28;20036;-78
2022/05/07 03:11:15;;;;;;;9.77;5.68;;;12.70;99.90;;;;;;5044123;28;20048;-78
2022/05/07 03:13:41;;;;;;;10.02;5.70;;;12.80;99.90;;;;;;5044062;28;20493;-79
2022/05/07 03:16:07;;;;;;;10.05;5.75;;;13.20;99.90;;;;;;5059890;28;20079;-78
2022/05/07 03:18:32;;;;;;;11.32;5.68;;;12.80;99.90;;;;;;5093791;28;20121;-78
2022/05/07 03:20:58;;;;;;;11.18;5.32;;;12.70;99.90;;;;;;5076887;28;20545;-78
2022/05/07 03:23:25;;;;;;;11.68;5.68;;;12.70;99.90;;;;;;5076736;28;20136;-78
2022/05/07 03:25:51;;;;;;;11.88;5.78;;;12.70;99.90;;;;;;5043444;28;20036;-79
2022/05/07 03:28:17;;;;;;;14.90;5.93;;;12.80;99.90;;;;;;5043373;28;20047;-79
2022/05/07 03:30:43;;;;;;;14.77;5.68;;;12.70;99.90;;;;;;5059083;28;20043;-79
2022/05/07 03:33:09;;;;;;;12.55;6.20;;;12.70;99.90;;;;;;5060025;28;20051;-79
2022/05/07 03:35:34;;;;;;;9.48;6.03;;;12.70;99.90;;;;;;5076503;28;20043;-78
2022/05/07 03:38:00;;;;;;;9.43;5.38;;;12.70;99.90;;;;;;5059776;28;20138;-78
2022/05/07 03:40:27;;;;;;;11.07;6.65;;;12.70;99.90;;;;;;5076599;28;20047;-78
2022/05/07 03:42:53;;;;;;;9.63;5.70;;;12.70;99.90;;;;;;5043463;28;20376;-78
2022/05/07 03:45:20;;;;;;;11.38;5.35;;;12.70;99.90;;;;;;5076066;28;20044;-79
2022/05/07 03:47:46;;;;;;;12.57;5.80;;;12.70;99.90;;;;;;5059470;28;20047;-78
2022/05/07 03:50:12;;;;;;;9.13;5.65;;;12.60;99.90;;;;;;5076146;28;20406;-79
2022/05/07 03:55:22;;;;;;;10.52;5.15;;;12.70;99.90;;;;;;5075898;28;20044;-79
2022/05/07 03:57:48;;;;;;;11.90;4.63;;;12.70;99.90;;;;;;5042704;28;20039;-78
2022/05/07 04:00:14;;;;;;;11.43;5.88;;;12.70;99.90;;;;;;5059378;28;20039;-78
2022/05/07 04:02:40;;;;;;;12.77;6.03;;;12.60;99.90;;;;;;5042747;28;20043;-78
2022/05/07 04:05:06;;;;;;;10.98;5.47;;;12.70;99.90;;;;;;5059102;28;20098;-78
2022/05/07 04:07:32;;;;;;;10.10;5.57;;;12.70;99.90;;;;;;5059195;28;20044;-78
2022/05/07 04:10:02;;;;;;;11.90;6.15;;;12.70;99.90;;;;;;5059480;28;20454;-79
2022/05/07 04:12:28;;;;;;;11.10;5.38;;;12.90;99.90;;;;;;5042965;28;20032;-78
2022/05/07 04:14:57;;;;;;;10.57;5.85;;;12.70;99.90;;;;;;5075607;28;20098;-78
2022/05/07 04:17:23;;;;;;;11.95;5.47;;;12.70;99.90;;;;;;5039469;28;20045;-78
2022/05/07 04:19:49;;;;;;;9.55;5.57;;;12.70;99.90;;;;;;5039296;28;20036;-78
2022/05/07 04:22:14;;;;;;;8.65;5.55;;;12.50;99.90;;;;;;5038975;28;20127;-78
2022/05/07 04:24:40;;;;;;;10.70;5.38;;;12.70;99.90;;;;;;5055728;28;20488;-78
2022/05/07 04:27:07;;;;;;;9.15;5.05;;;12.70;99.90;;;;;;5055553;28;20037;-78
2022/05/07 04:29:33;;;;;;;13.38;5.95;;;12.70;99.90;;;;;;5039543;28;20387;-78
2022/05/07 04:31:58;;;;;;;10.30;5.53;;;12.80;99.90;;;;;;5038844;28;20044;-78
2022/05/07 04:34:26;;;;;;;9.38;5.35;;;12.80;99.90;;;;;;5055384;28;20119;-78
2022/05/07 04:36:52;;;;;;;9.32;5.95;;;12.80;99.90;;;;;;5056165;28;20483;-79
2022/05/07 04:39:17;;;;;;;15.30;5.70;;;12.80;99.90;;;;;;5055136;28;20046;-79
2022/05/07 04:41:43;;;;;;;10.65;5.63;;;12.80;99.90;;;;;;5038325;28;20045;-78
2022/05/07 04:44:09;;;;;;;10.70;5.75;;;12.80;99.90;;;;;;5055485;28;20040;-78
2022/05/07 04:46:34;;;;;;;9.00;5.40;;;12.80;99.90;;;;;;5038924;28;20039;-78
2022/05/07 04:49:00;;;;;;;8.43;5.18;;;12.80;99.90;;;;;;5055538;28;20079;-78
2022/05/07 04:51:26;;;;;;;11.85;5.55;;;12.90;99.90;;;;;;5055179;28;20052;-78
2022/05/07 04:53:51;;;;;;;8.00;5.03;;;12.90;99.90;;;;;;5038798;28;20527;-78
2022/05/07 04:56:17;;;;;;;10.50;6.32;;;12.90;99.90;;;;;;5038727;28;20101;-78
2022/05/07 04:58:43;;;;;;;12.38;5.18;;;12.90;99.90;;;;;;5038373;28;20044;-78
2022/05/07 05:01:08;;;;;;;11.00;5.28;;;12.90;99.90;;;;;;5038309;28;20486;-78
2022/05/07 05:03:34;;;;;;;10.13;5.70;;;13.00;99.90;;;;;;5022080;28;20047;-78
2022/05/07 05:06:00;;;;;;;10.25;5.25;;;13.00;99.90;;;;;;5054951;28;20139;-77
2022/05/07 05:08:27;;;;;;;13.35;6.03;;;13.00;99.90;;;;;;5054948;28;20051;-78
2022/05/07 05:10:53;;;;;;;10.23;4.63;;;13.00;99.90;;;;;;5038633;28;20059;-78
2022/05/07 05:13:19;;;;;;;12.10;5.85;;;13.10;99.90;;;;;;5038370;28;20040;-78
2022/05/07 05:15:44;;;;;;;9.02;4.95;;;13.10;99.90;;;;;;5074107;28;20424;-78
2022/05/07 05:18:13;;;;;;;9.50;4.82;;;13.10;99.90;;;;;;5041552;28;20048;-78
2022/05/07 05:20:39;;;;;;;9.60;4.85;;;13.10;99.90;;;;;;5042261;28;20040;-78
2022/05/07 05:23:06;;;;;;;9.85;4.55;;;13.10;99.90;;;;;;5074852;28;20044;-78
2022/05/07 05:25:32;;;;;;;12.48;5.82;;;13.10;99.90;;;;;;5041601;28;20036;-78
2022/05/07 05:27:57;;;;;;;10.25;5.38;;;13.10;99.90;;;;;;5058337;28;20032;-78
2022/05/07 05:30:24;;;;;;;17.30;6.10;;;13.10;99.90;;;;;;5074654;28;20040;-78
2022/05/07 05:32:50;;;;;;;10.40;5.68;;;13.10;99.90;;;;;;5041553;28;20044;-78
2022/05/07 05:35:16;;;;;;;9.43;4.57;;;13.10;99.90;;;;;;5074627;28;20044;-79
2022/05/07 05:37:41;;;;;;;12.55;5.97;;;13.10;99.90;;;;;;5041379;28;20047;-79
2022/05/07 05:40:08;;;;;;;8.38;4.95;;;13.10;99.90;;;;;;5058077;28;20036;-79
2022/05/07 05:42:33;;;;;;;9.77;5.65;;;13.20;99.90;;;;;;5074843;28;20500;-79
2022/05/07 05:44:59;;;;;;;9.50;5.43;;;13.20;99.90;;;;;;5041427;28;20076;-79
2022/05/07 05:47:25;;;;;;;10.68;4.97;;;13.30;99.90;;;;;;5057830;28;20088;-78
2022/05/07 05:49:52;;;;;;;8.68;4.47;;;13.30;99.90;;;;;;5075149;28;20037;-78
2022/05/07 05:52:18;;;;;;;8.50;5.25;;;13.40;99.90;;;;;;5074443;28;20088;-78
2022/05/07 05:54:45;;;;;;;8.52;4.93;;;13.50;99.90;;;;;;5060911;28;20036;-79
2022/05/07 05:57:11;;;;;;;8.05;5.18;;;13.50;99.90;;;;;;5061799;28;20077;-79
2022/05/07 05:59:36;;;;;;;10.50;5.80;;;13.50;99.90;;;;;;5045022;28;20040;-78
2022/05/07 06:02:03;;;;;;;10.93;5.38;;;13.50;99.90;;;;;;5044870;28;20132;-78
2022/05/07 06:04:28;;;;;;;15.85;6.05;;;13.60;99.90;;;;;;5078096;28;20079;-78
2022/05/07 06:06:54;;;;;;;11.13;4.78;;;13.60;99.90;;;;;;5061398;28;20071;-78
2022/05/07 06:09:21;;;;;;;10.40;5.57;;;13.70;99.90;;;;;;5061648;28;20494;-77
2022/05/07 06:11:47;;;;;;;8.75;5.15;;;13.70;99.90;;;;;;5061402;28;20044;-78
2022/05/07 06:14:13;;;;;;;8.15;5.18;;;13.90;99.90;;;;;;5061506;28;20561;-77
2022/05/07 06:16:38;;;;;;;9.18;4.78;;;13.90;99.90;;;;;;5074350;28;20092;-78
2022/05/07 06:19:05;;;;;;;11.90;4.90;;;14.00;99.90;;;;;;5057810;28;20057;-78
2022/05/07 06:21:31;;;;;;;11.40;5.75;;;14.00;99.90;;;;;;5057960;28;20123;-77
2022/05/07 06:27:28;;;;;;;10.32;5.38;;;14.00;99.90;;;;;;5055700;22;20300;-73
2022/05/07 06:29:26;;;;;;;10.65;5.65;;;14.00;99.90;;;;;;5063478;28;20047;-73
2022/05/07 06:31:52;;;;;;;7.80;5.53;;;14.00;99.90;;;;;;5061190;28;20398;-73
2022/05/07 06:34:22;;;;;;;11.00;5.75;;;14.00;99.90;;;;;;5060894;28;20039;-73
2022/05/07 06:36:47;;;;;;;8.02;5.38;;;14.00;99.90;;;;;;5077422;28;20075;-73
2022/05/07 06:39:13;;;;;;;10.32;6.78;;;14.10;99.90;;;;;;5044467;28;20048;-73
2022/05/07 06:41:40;;;;;;;9.30;6.45;;;14.10;99.90;;;;;;5077407;28;20085;-73
2022/05/07 06:44:05;;;;;;;11.05;5.97;;;14.10;99.90;;;;;;5077222;28;20048;-73
2022/05/07 06:46:31;;;;;;;12.90;5.97;;;14.20;99.90;;;;;;5077320;28;20032;-73
2022/05/07 06:48:57;;;;;;;9.98;5.72;;;14.30;99.90;;;;;;5077333;28;20044;-73
2022/05/07 06:51:24;;;;;;;10.20;5.43;;;14.30;99.90;;;;;;5060590;28;20115;-73
2022/05/07 06:53:49;;;;;;;8.48;4.45;;;14.30;99.90;;;;;;5061004;28;20048;-73
2022/05/07 06:56:16;;;;;;;11.07;6.47;;;14.40;99.90;;;;;;5077169;28;20051;-72
2022/05/07 06:58:41;;;;;;;11.38;6.57;;;14.40;99.90;;;;;;5077467;28;20044;-71
2022/05/07 07:01:07;;;;;;;10.85;6.00;;;14.50;99.90;;;;;;5060261;28;20542;-71
2022/05/07 07:03:33;;;;;;;16.70;5.35;;;14.60;99.90;;;;;;5043730;28;20063;-71
2022/05/07 07:06:00;;;;;;;11.73;5.78;;;14.60;99.90;;;;;;5060119;28;20068;-72
2022/05/07 07:08:29;;;;;;;12.15;5.28;;;14.70;99.90;;;;;;5076974;28;20036;-70
2022/05/07 07:10:54;;;;;;;9.05;5.25;;;14.80;99.90;;;;;;5076928;28;20058;-72
2022/05/07 07:13:20;;;;;;;9.02;4.63;;;15.20;99.90;;;;;;5060074;28;20048;-73
2022/05/07 07:15:46;;;;;;;10.35;5.63;;;14.90;99.90;;;;;;5076908;28;20039;-74
2022/05/07 07:18:12;;;;;;;10.80;5.95;;;15.10;99.90;;;;;;5059975;28;20044;-72
2022/05/07 07:20:40;;;;;;;11.80;5.45;;;14.90;99.90;;;;;;5076520;28;20075;-71
2022/05/07 07:23:06;;;;;;;9.80;5.50;;;14.90;99.90;;;;;;5059913;28;20556;-73
2022/05/07 07:25:32;;;;;;;10.40;4.78;;;15.10;99.90;;;;;;5057330;28;20484;-71
2022/05/07 07:27:58;;;;;;;7.82;5.13;;;15.20;99.90;;;;;;5053142;28;20045;-73
2022/05/07 07:30:23;;;;;;;9.25;5.32;;;15.20;99.90;;;;;;5036542;28;20051;-72
2022/05/07 07:32:50;;;;;;;10.80;5.70;;;15.30;99.90;;;;;;5020375;28;20048;-74
2022/05/07 07:35:16;;;;;;;10.40;5.45;;;15.40;99.90;;;;;;5053183;28;20498;-72
2022/05/07 07:37:45;;;;;;;9.60;5.38;;;15.60;99.90;;;;;;5052989;28;20045;-72
2022/05/07 07:40:13;;;;;;;7.75;5.05;;;15.80;99.90;;;;;;5020742;28;20041;-72
2022/05/07 07:42:42;;;;;;;10.25;5.88;;;15.90;99.90;;;;;;5052921;28;20080;-72
2022/05/07 07:47:57;;;;;;;10.02;4.78;;;16.20;99.90;;;;;;5052849;28;20048;-72
2022/05/07 07:50:32;;;;;;;10.15;5.50;;;16.30;99.90;;;;;;5036150;28;20045;-71
2022/05/07 07:53:00;;;;;;;7.82;5.00;;;16.40;99.90;;;;;;5052840;28;20049;-72
2022/05/07 07:55:29;;;;;;;8.57;4.82;;;16.50;99.90;;;;;;5053065;28;20048;-72
2022/05/07 07:58:00;;;;;;;7.38;4.22;;;16.60;99.90;;;;;;5036424;28;20039;-72
2022/05/07 08:00:27;;;;;;;7.95;4.38;;;16.70;99.90;;;;;;5036425;28;20041;-72
2022/05/07 08:02:55;;;;;;;8.40;4.63;;;16.90;99.90;;;;;;5052798;28;20491;-73
2022/05/07 08:05:22;;;;;;;10.02;5.53;;;16.90;99.90;;;;;;5035969;28;20045;-72
2022/05/07 08:13:17;;;;;;;6.90;3.20;;;16.90;99.90;;;;;;5052613;28;20045;-72
2022/05/07 08:15:42;;;;;;;15.90;4.93;;;16.90;99.90;;;;;;5035251;28;20041;-72
2022/05/07 08:18:08;;;;;;;7.47;4.22;;;16.90;99.90;;;;;;5035878;28;20480;-72
2022/05/07 08:20:34;;;;;;;6.18;3.55;;;17.00;99.90;;;;;;5052181;28;20096;-72
2022/05/07 08:23:00;;;;;;;5.57;3.30;;;17.20;99.90;;;;;;5052138;28;20140;-72
2022/05/07 08:25:25;;;;;;;9.18;3.65;;;17.00;99.90;;;;;;5035400;28;20055;-72
2022/05/07 08:27:51;;;;;;;4.95;3.50;;;17.00;99.90;;;;;;5035731;28;20086;-72
2022/05/07 08:30:17;;;;;;;6.55;3.22;;;17.00;99.90;;;;;;5035418;28;20043;-73
2022/05/07 08:32:42;;;;;;;9.50;4.60;;;17.20;99.90;;;;;;5051987;28;20083;-72
2022/05/07 08:35:08;;;;;;;7.30;4.18;;;17.20;99.90;;;;;;5052017;28;20091;-72
2022/05/07 08:37:34;;;;;;;6.45;4.15;;;17.20;99.90;;;;;;5052048;28;20471;-72
2022/05/07 08:40:01;;;;;;;8.23;4.82;;;17.20;99.90;;;;;;5035414;28;20511;-73
2022/05/07 08:42:31;;;;;;;9.10;5.57;;;17.30;99.90;;;;;;5035427;28;20094;-72
2022/05/07 08:44:57;;;;;;;11.90;5.57;;;17.30;99.90;;;;;;5035329;28;20053;-72
2022/05/07 08:47:23;;;;;;;9.10;4.80;;;17.30;99.90;;;;;;5051894;28;20060;-72
2022/05/07 08:49:55;;;;;;;7.68;4.40;;;17.40;99.90;;;;;;5052088;28;20032;-72
2022/05/07 08:52:22;;;;;;;8.18;4.93;;;17.80;99.90;;;;;;5035709;28;20064;-72
2022/05/07 08:54:48;;;;;;;9.02;4.60;;;17.60;99.90;;;;;;5035056;28;20078;-72
2022/05/07 08:57:15;;;;;;;10.23;4.60;;;17.50;99.90;;;;;;5035403;28;20390;-73
2022/05/07 08:59:43;;;;;;;8.93;4.70;;;17.50;99.90;;;;;;5051959;28;20048;-73
2022/05/07 09:02:09;;;;;;;8.00;4.40;;;17.60;99.90;;;;;;5018842;28;20045;-73
2022/05/07 09:04:36;;;;;;;7.40;4.30;;;17.70;99.90;;;;;;5051883;28;20484;-73
2022/05/07 09:07:03;;;;;;;9.10;4.88;;;17.70;99.90;;;;;;5051805;28;20125;-73
2022/05/07 09:09:32;;;;;;;7.13;4.63;;;17.70;99.90;;;;;;5035228;28;20044;-74
2022/05/07 09:11:58;;;;;;;13.35;5.47;;;17.70;99.90;;;;;;5018837;28;20513;-72
2022/05/07 09:14:31;;;;;;;7.72;4.47;;;17.70;99.90;;;;;;5051835;28;20049;-72
2022/05/07 09:17:01;;;;;;;9.15;4.03;;;17.70;99.90;;;;;;5051807;28;20495;-73
2022/05/07 09:19:30;;;;;;;8.27;5.20;;;17.80;99.90;;;;;;5052071;28;20041;-73
2022/05/07 09:22:10;;;;;;;10.52;4.60;;;17.80;99.90;;;;;;5034882;28;20119;-73
2022/05/07 09:24:37;;;;;;;6.50;4.20;;;17.80;99.90;;;;;;5035065;28;20053;-73
2022/05/07 09:27:04;;;;;;;8.20;4.25;;;17.80;99.90;;;;;;5051773;28;20053;-73
2022/05/07 09:29:31;;;;;;;7.22;4.20;;;17.80;99.90;;;;;;5054516;28;20037;-73
2022/05/07 09:32:16;;;;;;;9.45;4.45;;;17.80;99.90;;;;;;5022890;28;20396;-72
2022/05/07 09:37:36;;;;;;;8.10;4.95;;;18.10;99.90;;;;;;5055749;28;20049;-72
2022/05/07 09:40:08;;;;;;;8.85;4.35;;;18.20;99.90;;;;;;5055630;28;20092;-73
2022/05/07 09:42:34;;;;;;;8.13;4.03;;;18.30;99.90;;;;;;5038851;28;20086;-73
2022/05/07 09:45:01;;;;;;;10.32;4.47;;;18.40;99.90;;;;;;5038660;28;20049;-73
2022/05/07 09:47:28;;;;;;;7.30;4.80;;;18.40;99.90;;;;;;5055274;28;20045;-73
2022/05/07 09:58:10;;;;;;;7.93;4.20;;;18.60;99.90;;;;;;5055309;28;20048;-72
2022/05/07 10:00:46;;;;;;;6.47;4.07;;;18.70;99.90;;;;;;5038550;28;20044;-73
2022/05/07 10:03:34;;;;;;;8.75;4.22;;;18.70;99.90;;;;;;5054955;28;20072;-73
2022/05/07 10:06:11;;;;;;;10.13;4.90;;;18.80;99.90;;;;;;5038661;28;20037;-73
2022/05/07 10:08:53;;;;;;;7.40;4.47;;;18.90;99.90;;;;;;5054838;28;20045;-73
2022/05/07 10:11:20;;;;;;;7.00;3.97;;;19.00;99.90;;;;;;5055144;28;20052;-73
2022/05/07 10:13:56;;;;;;;9.15;4.97;;;19.00;99.90;;;;;;5054762;28;20055;-73
2022/05/07 10:16:23;;;;;;;9.63;4.60;;;19.10;99.90;;;;;;5038059;28;20045;-72
2022/05/07 10:18:49;;;;;;;7.53;4.45;;;19.30;99.90;;;;;;5054605;28;20136;-73
2022/05/07 10:21:17;;;;;;;9.60;4.70;;;19.30;99.90;;;;;;5054531;28;20055;-73
2022/05/07 10:23:56;;;;;;;10.02;5.22;;;19.30;99.90;;;;;;5039782;28;20392;-73
2022/05/07 10:26:41;;;;;;;8.27;3.90;;;19.40;99.90;;;;;;5094675;28;20047;-74
2022/05/07 10:29:19;;;;;;;6.43;3.33;;;19.40;99.90;;;;;;5061085;28;20134;-76
2022/05/07 10:31:45;;;;;;;8.43;4.38;;;19.40;99.90;;;;;;5077841;28;20078;-73
2022/05/07 10:34:22;;;;;;;6.57;3.70;;;19.60;99.90;;;;;;5077596;28;20040;-74
2022/05/07 10:37:02;;;;;;;8.10;4.43;;;19.70;99.90;;;;;;5077640;28;20036;-73
2022/05/07 10:39:28;;;;;;;8.82;4.88;;;19.60;99.90;;;;;;5077060;28;20051;-74
2022/05/07 10:41:54;;;;;;;8.20;4.47;;;19.60;99.90;;;;;;5060902;28;20047;-73
2022/05/07 10:44:33;;;;;;;8.23;4.38;;;19.50;99.90;;;;;;5060820;28;20440;-73
2022/05/07 10:47:13;;;;;;;10.45;5.18;;;19.60;99.90;;;;;;5061113;28;20040;-74
2022/05/07 10:50:12;;;;;;;11.47;5.33;;;19.60;99.90;;;;;;5061018;28;20419;-72
2022/05/07 10:52:38;;;;;;;9.57;4.53;;;19.60;99.90;;;;;;5041948;28;20048;-72
2022/05/07 10:55:17;;;;;;;8.90;4.55;;;19.60;99.90;;;;;;5077248;28;20551;-71
2022/05/07 10:57:44;;;;;;;7.97;4.77;;;19.70;99.90;;;;;;5077653;28;20048;-72
2022/05/07 11:00:29;;;;;;;9.82;4.80;;;19.50;99.90;;;;;;5077264;28;20055;-72
2022/05/07 11:03:00;;;;;;;8.45;4.88;;;19.40;99.90;;;;;;5077104;28;20040;-72
2022/05/07 11:05:33;;;;;;;7.50;4.57;;;19.60;99.90;;;;;;5061161;28;20517;-72
2022/05/07 11:08:00;;;;;;;9.68;4.47;;;19.60;99.90;;;;;;5060402;28;20040;-72
2022/05/07 11:10:26;;;;;;;7.32;3.85;;;19.80;99.90;;;;;;5060518;28;20360;-72
2022/05/07 11:12:52;;;;;;;8.18;3.80;;;19.80;99.90;;;;;;5060419;28;20036;-73
2022/05/07 11:15:25;;;;;;;8.05;3.75;;;19.80;99.90;;;;;;5060166;28;20043;-73
2022/05/07 11:17:51;;;;;;;11.05;4.50;;;19.90;99.90;;;;;;5076704;28;20040;-72
2022/05/07 11:20:35;;;;;;;10.35;5.38;;;20.00;99.90;;;;;;5059943;28;20036;-73
2022/05/07 11:23:02;;;;;;;9.88;5.38;;;20.10;99.90;;;;;;5059826;28;20039;-74
2022/05/07 11:25:28;;;;;;;11.65;5.25;;;20.00;99.90;;;;;;5076385;28;20511;-75
2022/05/07 11:27:57;;;;;;;15.65;7.22;;;20.10;99.90;;;;;;5060214;28;20043;-74
2022/05/07 11:30:23;;;;;;;11.10;6.85;;;20.20;99.90;;;;;;5076741;28;20040;-72
2022/05/07 11:32:48;;;;;;;15.75;7.47;;;20.40;99.90;;;;;;5076174;28;20124;-73
2022/05/07 11:35:14;;;;;;;12.13;6.30;;;20.20;99.90;;;;;;5076288;28;20036;-73
2022/05/07 11:37:42;;;;;;;11.98;6.55;;;20.00;99.90;;;;;;5076310;28;20055;-74
2022/05/07 11:40:09;;;;;;;15.50;6.43;;;20.10;99.90;;;;;;5076599;28;20044;-74
2022/05/07 11:42:45;;;;;;;15.70;7.10;;;20.10;99.90;;;;;;5059411;28;20079;-75
2022/05/07 11:45:31;;;;;;;14.23;6.95;;;20.00;99.90;;;;;;5076270;28;20380;-74
2022/05/07 11:48:14;;;;;;;16.63;6.95;;;20.00;99.90;;;;;;5076472;28;20507;-74
2022/05/07 11:50:54;;;;;;;14.77;7.55;;;20.10;99.90;;;;;;5075184;28;20040;-74
2022/05/07 11:53:26;;;;;;;13.15;7.03;;;19.70;99.90;;;;;;5059516;28;20384;-74
2022/05/07 11:55:51;;;;;;;14.35;6.38;;;19.60;99.90;;;;;;5075883;28;20044;-75
2022/05/07 11:58:24;;;;;;;10.70;6.03;;;19.50;99.90;;;;;;5059247;28;20426;-76
2022/05/07 12:00:55;;;;;;;13.98;6.05;;;19.60;99.90;;;;;;5042674;28;20483;-76
2022/05/07 12:03:27;;;;;;;11.50;6.13;;;19.40;99.90;;;;;;5059078;28;20119;-73
2022/05/07 12:05:57;;;;;;;10.32;5.20;;;19.50;99.90;;;;;;5076061;28;20040;-76
2022/05/07 12:08:34;;;;;;;11.43;5.57;;;19.30;99.90;;;;;;5075883;28;20506;-76
2022/05/07 12:11:00;;;;;;;10.55;5.80;;;19.40;99.90;;;;;;5075300;28;20058;-76
2022/05/07 12:13:27;;;;;;;14.90;5.97;;;19.40;99.90;;;;;;5058795;28;20167;-75
2022/05/07 12:18:41;;;;;;;9.95;5.43;;;19.80;99.90;;;;;;5075684;28;20443;-75
2022/05/07 12:21:07;;;;;;;11.32;5.93;;;20.00;99.90;;;;;;5059128;28;20086;-75
2022/05/07 12:31:49;;;;;;;15.52;6.43;;;20.00;99.90;;;;;;5075519;28;20059;-75
2022/05/07 12:34:15;;;;;;;15.15;7.13;;;20.10;99.90;;;;;;5042698;28;20429;-75
2022/05/07 12:36:41;;;;;;;15.05;6.60;;;20.10;99.90;;;;;;5075678;28;20048;-76
2022/05/07 12:39:06;;;;;;;14.57;6.80;;;20.30;99.90;;;;;;5059100;28;20478;-75
2022/05/07 12:41:32;;;;;;;14.30;6.85;;;20.30;99.90;;;;;;5075389;28;20040;-75
2022/05/07 12:44:02;;;;;;;15.55;6.82;;;20.50;99.90;;;;;;5058708;28;20089;-75
2022/05/07 12:46:28;;;;;;;10.82;6.10;;;20.20;99.90;;;;;;5058634;28;20036;-75
2022/05/07 12:48:56;;;;;;;10.77;6.10;;;20.10;99.90;;;;;;5058572;28;20067;-75
2022/05/07 12:51:25;;;;;;;10.40;5.78;;;20.10;99.90;;;;;;5058556;28;20055;-76
2022/05/07 12:53:52;;;;;;;11.73;6.15;;;20.00;99.90;;;;;;5075553;28;20048;-76
2022/05/07 12:56:18;;;;;;;10.65;4.78;;;19.70;99.90;;;;;;5042047;28;20079;-74
2022/05/07 12:58:44;;;;;;;9.38;5.18;;;19.40;99.90;;;;;;5058726;28;20071;-74
2022/05/07 13:01:12;;;;;;;10.20;5.38;;;19.30;99.90;;;;;;5042020;28;20079;-75
2022/05/07 13:03:38;;;;;;;8.70;4.60;;;19.30;99.90;;;;;;5041782;28;20032;-74
2022/05/07 13:06:04;;;;;;;9.20;4.97;;;19.50;99.90;;;;;;5075002;28;20039;-74
2022/05/07 13:08:29;;;;;;;8.23;4.22;;;19.50;99.90;;;;;;5058368;28;20032;-75
2022/05/07 13:10:55;;;;;;;9.50;4.22;;;19.50;99.90;;;;;;5058511;28;20534;-74
2022/05/07 13:13:23;;;;;;;8.00;3.97;;;19.40;99.90;;;;;;5058280;28;20043;-74
2022/05/07 13:15:49;;;;;;;10.55;4.05;;;19.20;99.90;;;;;;5058491;28;20040;-74
2022/05/07 13:18:16;;;;;;;8.13;3.95;;;19.00;99.90;;;;;;5058597;28;20043;-74
2022/05/07 13:20:42;;;;;;;8.85;4.25;;;19.00;99.90;;;;;;5074811;28;20055;-73
2022/05/07 13:23:08;;;;;;;8.25;3.50;;;19.00;99.90;;;;;;5074753;28;20036;-74
2022/05/07 13:25:34;;;;;;;8.10;3.75;;;19.20;99.90;;;;;;5058015;28;20079;-75
2022/05/07 13:27:59;;;;;;;7.55;3.85;;;19.50;99.90;;;;;;5058062;28;20364;-74
2022/05/07 13:30:25;;;;;;;7.88;3.50;;;19.70;99.90;;;;;;5058077;28;20043;-73
2022/05/07 13:32:51;;;;;;;6.03;3.20;;;19.70;99.90;;;;;;5058153;28;20376;-74